Time;durP1;ratioP1;P1;durP2;ratioP2;P2;SDS_P1;SDS_P2;PMS_P1;PMS_P2;Temp;Humidity;BMP_temperature;BMP_pressure;BME280_temperature;BME280_humidity;BME280_pressure;Samples;Min_cycle;Max_cycle;Signal;HPM_P1;HPM_P2
2022/05/02 00:00:49;;;;;;;;;;;;;;;;;;5028188;28;19917;-54
2022/05/02 00:03:14;;;;;;;;;;;;;;;;;;5020603;28;19964;-56
2022/05/02 00:05:40;;;;;;;;;;;;;;;;;;5025603;28;19917;-56
2022/05/02 00:08:06;;;;;;;;;;;;;;;;;;5019828;28;20398;-56
2022/05/02 00:10:32;;;;;;;;;;;;;;;;;;5025366;28;20405;-56
2022/05/02 00:12:57;;;;;;;;;;;;;;;;;;5023567;28;20214;-57
2022/05/02 00:15:23;;;;;;;;;;;;;;;;;;5024066;28;19975;-56
2022/05/02 00:17:57;;;;;;;;;;;;;;;;;;5024587;28;20209;-56
2022/05/02 00:20:29;;;;;;;;;;;;;;;;;;5021406;28;20386;-56
2022/05/02 00:22:54;;;;;;;;;;;;;;;;;;5022966;28;20004;-57
2022/05/02 00:25:20;;;;;;;;;;;;;;;;;;5014950;28;19953;-56
2022/05/02 00:27:45;;;;;;;;;;;;;;;;;;5028777;28;19974;-57
2022/05/02 00:30:11;;;;;;;;;;;;;;;;;;5026867;28;19948;-56
2022/05/02 00:32:37;;;;;;;;;;;;;;;;;;5026674;28;19917;-56
2022/05/02 00:35:03;;;;;;;;;;;;;;;;;;5024674;28;19924;-56
2022/05/02 00:37:29;;;;;;;;;;;;;;;;;;5026050;28;19917;-56
2022/05/02 00:39:54;;;;;;;;;;;;;;;;;;5025735;28;19970;-56
2022/05/02 00:42:20;;;;;;;;;;;;;;;;;;5027707;28;19924;-56
2022/05/02 00:44:45;;;;;;;;;;;;;;;;;;5022845;28;19913;-56
2022/05/02 00:47:11;;;;;;;;;;;;;;;;;;5030838;28;19925;-56
2022/05/02 00:49:36;;;;;;;;;;;;;;;;;;5028294;28;19918;-56
2022/05/02 00:52:02;;;;;;;;;;;;;;;;;;5023831;28;20383;-56
2022/05/02 00:54:27;;;;;;;;;;;;;;;;;;5019303;28;19929;-56
2022/05/02 00:56:53;;;;;;;;;;;;;;;;;;5021046;28;19917;-56
2022/05/02 00:59:21;;;;;;;;;;;;;;;;;;5020754;28;19967;-56
2022/05/02 01:01:47;;;;;;;;;;;;;;;;;;5022658;28;20394;-57
2022/05/02 01:04:12;;;;;;;;;;;;;;;;;;5021384;28;19928;-56
2022/05/02 01:09:21;;;;;;;;;;;;;;;;;;5018288;28;19924;-57
2022/05/02 01:11:46;;;;;;;;;;;;;;;;;;5017892;28;19924;-57
2022/05/02 01:14:11;;;;;;;;;;;;;;;;;;5020142;28;19921;-57
2022/05/02 01:16:37;;;;;;;;;;;;;;;;;;5015487;28;19921;-56
2022/05/02 01:19:02;;;;;;;;;;;;;;;;;;5023307;28;19918;-57
2022/05/02 01:21:29;;;;;;;;;;;;;;;;;;5028339;28;19917;-57
2022/05/02 01:23:57;;;;;;;;;;;;;;;;;;5013129;28;20301;-56
2022/05/02 01:26:22;;;;;;;;;;;;;;;;;;5017845;28;20425;-56
2022/05/02 01:28:48;;;;;;;;;;;;;;;;;;5029765;28;19971;-56
2022/05/02 01:31:14;;;;;;;;;;;;;;;;;;5028689;28;20086;-55
2022/05/02 01:33:40;;;;;;;;;;;;;;;;;;5023184;28;20426;-56
2022/05/02 01:36:05;;;;;;;;;;;;;;;;;;5021542;28;20061;-56
2022/05/02 01:38:31;;;;;;;;;;;;;;;;;;5030286;28;19924;-56
2022/05/02 01:40:56;;;;;;;;;;;;;;;;;;5030601;28;19971;-56
2022/05/02 01:43:21;;;;;;;;;;;;;;;;;;5024310;28;19917;-56
2022/05/02 01:45:47;;;;;;;;;;;;;;;;;;5023879;28;19952;-56
2022/05/02 01:48:12;;;;;;;;;;;;;;;;;;5024450;28;20020;-56
2022/05/02 01:50:37;;;;;;;;;;;;;;;;;;5024335;28;20006;-56
2022/05/02 01:53:03;;;;;;;;;;;;;;;;;;5019341;28;19967;-57
2022/05/02 01:55:28;;;;;;;;;;;;;;;;;;5025481;28;19940;-56
2022/05/02 01:57:53;;;;;;;;;;;;;;;;;;5025018;28;19924;-57
2022/05/02 02:00:19;;;;;;;;;;;;;;;;;;5020919;28;20252;-56
2022/05/02 02:02:44;;;;;;;;;;;;;;;;;;5019088;28;19933;-57
2022/05/02 02:07:53;;;;;;;;;;;;;;;;;;5022575;28;20024;-56
2022/05/02 02:10:19;;;;;;;;;;;;;;;;;;5019485;28;20430;-57
2022/05/02 02:12:44;;;;;;;;;;;;;;;;;;5017750;28;20189;-56
2022/05/02 02:15:14;;;;;;;;;;;;;;;;;;5020335;28;19965;-56
2022/05/02 02:17:39;;;;;;;;;;;;;;;;;;5017006;28;19924;-56
2022/05/02 02:20:05;;;;;;;;;;;;;;;;;;5019175;28;20462;-56
2022/05/02 02:22:30;;;;;;;;;;;;;;;;;;5012770;28;20359;-56
2022/05/02 02:24:56;;;;;;;;;;;;;;;;;;5013075;28;19971;-56
2022/05/02 02:27:22;;;;;;;;;;;;;;;;;;5022312;28;19925;-56
2022/05/02 02:29:47;;;;;;;;;;;;;;;;;;5017719;28;20014;-56
2022/05/02 02:32:12;;;;;;;;;;;;;;;;;;5025482;28;19921;-56
2022/05/02 02:34:37;;;;;;;;;;;;;;;;;;5016404;28;19920;-56
2022/05/02 02:37:03;;;;;;;;;;;;;;;;;;5029637;28;20199;-56
2022/05/02 02:39:28;;;;;;;;;;;;;;;;;;5031195;28;19971;-56
2022/05/02 02:41:53;;;;;;;;;;;;;;;;;;5030623;28;19914;-57
2022/05/02 02:44:19;;;;;;;;;;;;;;;;;;5028170;28;19917;-56
2022/05/02 02:46:44;;;;;;;;;;;;;;;;;;5026400;28;19925;-56
2022/05/02 02:49:09;;;;;;;;;;;;;;;;;;5031772;28;19917;-56
2022/05/02 02:51:34;;;;;;;;;;;;;;;;;;5029547;28;19921;-56
2022/05/02 02:54:00;;;;;;;;;;;;;;;;;;5030621;28;20375;-56
2022/05/02 02:56:25;;;;;;;;;;;;;;;;;;5025622;28;19917;-56
2022/05/02 02:58:51;;;;;;;;;;;;;;;;;;5029080;28;19924;-57
2022/05/02 03:01:16;;;;;;;;;;;;;;;;;;5034111;28;19960;-56
2022/05/02 03:03:41;;;;;;;;;;;;;;;;;;5025005;28;19918;-57
2022/05/02 03:06:07;;;;;;;;;;;;;;;;;;5025712;28;19917;-57
2022/05/02 03:08:34;;;;;;;;;;;;;;;;;;5023593;28;19957;-56
2022/05/02 03:10:59;;;;;;;;;;;;;;;;;;5022599;28;19921;-55
2022/05/02 03:13:25;;;;;;;;;;;;;;;;;;5021639;28;20243;-55
2022/05/02 03:15:50;;;;;;;;;;;;;;;;;;5025003;28;19917;-56
2022/05/02 03:18:16;;;;;;;;;;;;;;;;;;5024867;28;19930;-56
2022/05/02 03:20:41;;;;;;;;;;;;;;;;;;5024276;28;20298;-57
2022/05/02 03:23:06;;;;;;;;;;;;;;;;;;5019973;28;19925;-56
2022/05/02 03:25:31;;;;;;;;;;;;;;;;;;5025680;28;19917;-56
2022/05/02 03:27:57;;;;;;;;;;;;;;;;;;5027211;28;20402;-55
2022/05/02 03:30:22;;;;;;;;;;;;;;;;;;5027220;28;19922;-56
2022/05/02 03:32:48;;;;;;;;;;;;;;;;;;5026461;28;20047;-56
2022/05/02 03:35:14;;;;;;;;;;;;;;;;;;5031994;28;19924;-55
2022/05/02 03:37:39;;;;;;;;;;;;;;;;;;5031647;28;20306;-56
2022/05/02 03:40:05;;;;;;;;;;;;;;;;;;5029990;28;19927;-56
2022/05/02 03:42:30;;;;;;;;;;;;;;;;;;5025672;28;20327;-56
2022/05/02 03:44:55;;;;;;;;;;;;;;;;;;5022852;28;19943;-57
2022/05/02 03:47:21;;;;;;;;;;;;;;;;;;5030321;28;19917;-57
2022/05/02 03:49:46;;;;;;;;;;;;;;;;;;5021699;28;19928;-57
2022/05/02 03:52:11;;;;;;;;;;;;;;;;;;5019449;28;19932;-57
2022/05/02 03:54:37;;;;;;;;;;;;;;;;;;5026260;28;19924;-57
2022/05/02 03:57:02;;;;;;;;;;;;;;;;;;5026237;28;20400;-57
2022/05/02 03:59:28;;;;;;;;;;;;;;;;;;5022968;28;19988;-56
2022/05/02 04:01:53;;;;;;;;;;;;;;;;;;5024531;28;19917;-58
2022/05/02 04:04:18;;;;;;;;;;;;;;;;;;5023583;28;19917;-57
2022/05/02 04:06:43;;;;;;;;;;;;;;;;;;5021174;28;20530;-57
2022/05/02 04:09:09;;;;;;;;;;;;;;;;;;5020962;28;19920;-59
2022/05/02 04:11:34;;;;;;;;;;;;;;;;;;5023174;28;19940;-59
2022/05/02 04:13:59;;;;;;;;;;;;;;;;;;5020140;28;19913;-59
2022/05/02 04:16:25;;;;;;;;;;;;;;;;;;5024585;28;19959;-59
2022/05/02 04:18:50;;;;;;;;;;;;;;;;;;5026976;28;20215;-60
2022/05/02 04:21:15;;;;;;;;;;;;;;;;;;5020099;28;19928;-59
2022/05/02 04:23:41;;;;;;;;;;;;;;;;;;5026655;28;20376;-59
2022/05/02 04:26:06;;;;;;;;;;;;;;;;;;5029548;28;20337;-59
2022/05/02 04:28:31;;;;;;;;;;;;;;;;;;5027115;28;19928;-59
2022/05/02 04:30:56;;;;;;;;;;;;;;;;;;5025872;28;19921;-59
2022/05/02 04:33:23;;;;;;;;;;;;;;;;;;5023358;28;19924;-58
2022/05/02 04:35:49;;;;;;;;;;;;;;;;;;5026084;28;19958;-59
2022/05/02 04:38:14;;;;;;;;;;;;;;;;;;5025814;28;19925;-59
2022/05/02 04:40:39;;;;;;;;;;;;;;;;;;5025382;28;19921;-59
2022/05/02 04:43:05;;;;;;;;;;;;;;;;;;5024925;28;20068;-59
2022/05/02 04:45:30;;;;;;;;;;;;;;;;;;5020941;28;19917;-59
2022/05/02 04:47:57;;;;;;;;;;;;;;;;;;5021169;28;20375;-60
2022/05/02 04:50:22;;;;;;;;;;;;;;;;;;5024359;28;19917;-58
2022/05/02 04:52:47;;;;;;;;;;;;;;;;;;5025212;28;19921;-58
2022/05/02 04:55:13;;;;;;;;;;;;;;;;;;5017991;28;19924;-59
2022/05/02 04:57:38;;;;;;;;;;;;;;;;;;5025381;28;19918;-59
2022/05/02 05:00:04;;;;;;;;;;;;;;;;;;5025036;28;19996;-58
2022/05/02 05:02:29;;;;;;;;;;;;;;;;;;5021487;28;20355;-59
2022/05/02 05:04:54;;;;;;;;;;;;;;;;;;5021627;28;19917;-59
2022/05/02 05:07:19;;;;;;;;;;;;;;;;;;5018706;28;19917;-60
2022/05/02 05:09:45;;;;;;;;;;;;;;;;;;5027428;28;19921;-59
2022/05/02 05:12:10;;;;;;;;;;;;;;;;;;5019861;28;20286;-59
2022/05/02 05:17:25;;;;;;;;;;;;;;;;;;5019065;28;20444;-58
2022/05/02 05:20:14;;;;;;;;;;;;;;;;;;5015364;28;19917;-59
2022/05/02 05:22:57;;;;;;;;;;;;;;;;;;5017964;28;19917;-58
2022/05/02 05:25:26;;;;;;;;;;;;;;;;;;5024711;28;19921;-59
2022/05/02 05:28:13;;;;;;;;;;;;;;;;;;5026196;28;19913;-58
2022/05/02 05:30:42;;;;;;;;;;;;;;;;;;5001942;28;19921;-59
2022/05/02 05:33:20;;;;;;;;;;;;;;;;;;5024980;28;19923;-59
2022/05/02 05:35:55;;;;;;;;;;;;;;;;;;5025728;28;19925;-59
2022/05/02 05:38:28;;;;;;;;;;;;;;;;;;5021927;28;19921;-59
2022/05/02 05:41:13;;;;;;;;;;;;;;;;;;5018393;28;19921;-59
2022/05/02 05:43:47;;;;;;;;;;;;;;;;;;5007492;28;20433;-59
2022/05/02 05:46:12;;;;;;;;;;;;;;;;;;5021336;28;19921;-59
2022/05/02 05:48:56;;;;;;;;;;;;;;;;;;5021199;28;20008;-59
2022/05/02 05:51:24;;;;;;;;;;;;;;;;;;5027417;28;19975;-59
2022/05/02 05:53:52;;;;;;;;;;;;;;;;;;5022169;28;20138;-59
2022/05/02 05:56:36;;;;;;;;;;;;;;;;;;5024235;28;19921;-59
2022/05/02 05:59:01;;;;;;;;;;;;;;;;;;5022932;28;20378;-59
2022/05/02 06:01:40;;;;;;;;;;;;;;;;;;5020057;28;19928;-59
2022/05/02 06:04:07;;;;;;;;;;;;;;;;;;5023036;28;20025;-59
2022/05/02 06:06:34;;;;;;;;;;;;;;;;;;5023410;28;19917;-59
2022/05/02 06:09:00;;;;;;;;;;;;;;;;;;5020983;28;19924;-58
2022/05/02 06:11:26;;;;;;;;;;;;;;;;;;5024026;28;19922;-58
2022/05/02 06:13:56;;;;;;;;;;;;;;;;;;5018558;28;20059;-59
2022/05/02 06:19:07;;;;;;;;;;;;;;;;;;5023313;28;19963;-59
2022/05/02 06:21:33;;;;;;;;;;;;;;;;;;5018952;28;20087;-59
2022/05/02 06:23:59;;;;;;;;;;;;;;;;;;5026129;28;20008;-59
2022/05/02 06:26:25;;;;;;;;;;;;;;;;;;5025206;28;20386;-59
2022/05/02 06:28:52;;;;;;;;;;;;;;;;;;5024659;28;19917;-59
2022/05/02 06:31:28;;;;;;;;;;;;;;;;;;5022648;28;19927;-58
2022/05/02 06:33:56;;;;;;;;;;;;;;;;;;5020544;28;20419;-58
2022/05/02 06:36:27;;;;;;;;;;;;;;;;;;5051715;28;19971;-59
2022/05/02 06:38:55;;;;;;;;;;;;;;;;;;5021541;28;20243;-59
2022/05/02 06:41:56;;;;;;;;;;;;;;;;;;5020578;28;19967;-59
2022/05/02 06:44:27;;;;;;;;;;;;;;;;;;4966900;28;19914;-59
2022/05/02 06:46:55;;;;;;;;;;;;;;;;;;5013733;28;19921;-59
2022/05/02 06:49:22;;;;;;;;;;;;;;;;;;5026620;28;19917;-59
2022/05/02 06:51:49;;;;;;;;;;;;;;;;;;5024135;28;20389;-59
2022/05/02 06:54:30;;;;;;;;;;;;;;;;;;5027315;28;20013;-59
2022/05/02 06:56:56;;;;;;;;;;;;;;;;;;5024370;28;19924;-58
2022/05/02 06:59:45;;;;;;;;;;;;;;;;;;5024036;28;19985;-59
2022/05/02 07:02:10;;;;;;;;;;;;;;;;;;5019918;28;19925;-59
2022/05/02 07:04:36;;;;;;;;;;;;;;;;;;5023453;28;19928;-59
2022/05/02 07:07:11;;;;;;;;;;;;;;;;;;5022625;28;20286;-59
2022/05/02 07:09:46;;;;;;;;;;;;;;;;;;5024270;28;20530;-59
2022/05/02 07:12:14;;;;;;;;;;;;;;;;;;5018026;28;19976;-59
2022/05/02 07:14:39;;;;;;;;;;;;;;;;;;5018769;28;19940;-58
2022/05/02 07:17:10;;;;;;;;;;;;;;;;;;5015930;28;20028;-59
2022/05/02 07:19:51;;;;;;;;;;;;;;;;;;5019676;28;20310;-59
2022/05/02 07:22:26;;;;;;;;;;;;;;;;;;5023396;28;20512;-59
2022/05/02 07:25:11;;;;;;;;;;;;;;;;;;5028106;28;20026;-59
2022/05/02 07:27:40;;;;;;;;;;;;;;;;;;5029649;28;19921;-59
2022/05/02 07:30:05;;;;;;;;;;;;;;;;;;5026214;28;19917;-59
2022/05/02 07:32:32;;;;;;;;;;;;;;;;;;5019584;28;19924;-59
2022/05/02 07:34:58;;;;;;;;;;;;;;;;;;5022206;28;19963;-59
2022/05/02 07:37:23;;;;;;;;;;;;;;;;;;5027031;28;19924;-59
2022/05/02 07:39:50;;;;;;;;;;;;;;;;;;5025030;28;19913;-59
2022/05/02 07:42:15;;;;;;;;;;;;;;;;;;5021100;28;19928;-59
2022/05/02 07:44:43;;;;;;;;;;;;;;;;;;5025536;28;20621;-59
2022/05/02 07:47:10;;;;;;;;;;;;;;;;;;5029010;28;20020;-59
2022/05/02 07:49:37;;;;;;;;;;;;;;;;;;5029332;28;19917;-59
2022/05/02 07:52:03;;;;;;;;;;;;;;;;;;5025649;28;19929;-59
2022/05/02 07:54:29;;;;;;;;;;;;;;;;;;5024043;28;19948;-59
2022/05/02 07:56:56;;;;;;;;;;;;;;;;;;5024577;28;19963;-59
2022/05/02 07:59:24;;;;;;;;;;;;;;;;;;5022492;28;19971;-59
2022/05/02 08:01:49;;;;;;;;;;;;;;;;;;5026640;28;19920;-58
2022/05/02 08:04:15;;;;;;;;;;;;;;;;;;5020803;28;20009;-59
2022/05/02 08:06:40;;;;;;;;;;;;;;;;;;5021938;28;20036;-59
2022/05/02 08:09:05;;;;;;;;;;;;;;;;;;5022797;28;19940;-59
2022/05/02 08:11:59;;;;;;;;;;;;;;;;;;5020873;28;19921;-59
2022/05/02 08:14:31;;;;;;;;;;;;;;;;;;4980390;28;20269;-59
2022/05/02 08:17:07;;;;;;;;;;;;;;;;;;5020094;28;20344;-60
2022/05/02 08:19:53;;;;;;;;;;;;;;;;;;5018907;28;19948;-59
2022/05/02 08:28:23;;;;;;;;;;;;;;;;;;5027798;28;19924;-59
2022/05/02 08:30:56;;;;;;;;;;;;;;;;;;5025586;28;20258;-59
2022/05/02 08:33:25;;;;;;;;;;;;;;;;;;5022015;28;20016;-59
2022/05/02 08:35:59;;;;;;;;;;;;;;;;;;5021186;28;19980;-59
2022/05/02 08:38:30;;;;;;;;;;;;;;;;;;5028158;28;20418;-59
2022/05/02 08:41:14;;;;;;;;;;;;;;;;;;5024465;28;19975;-58
2022/05/02 08:43:45;;;;;;;;;;;;;;;;;;5022414;28;19948;-58
2022/05/02 08:46:10;;;;;;;;;;;;;;;;;;5022724;28;19921;-59
2022/05/02 08:49:32;;;;;;;;;;;;;;;;;;5026259;28;19917;-60
2022/05/02 08:51:55;;;;;;;;;;;;;;;;;;5027267;28;20293;-58
2022/05/02 08:54:35;;;;;;;;;;;;;;;;;;5023894;28;20011;-59
2022/05/02 08:57:18;;;;;;;;;;;;;;;;;;5021497;28;19917;-59
2022/05/02 09:00:06;;;;;;;;;;;;;;;;;;5023859;28;19924;-59
2022/05/02 09:02:34;;;;;;;;;;;;;;;;;;5023094;28;20287;-58
2022/05/02 09:05:18;;;;;;;;;;;;;;;;;;5018149;28;19917;-58
2022/05/02 09:07:56;;;;;;;;;;;;;;;;;;5021328;28;19995;-59
2022/05/02 09:10:40;;;;;;;;;;;;;;;;;;5018147;28;20322;-58
2022/05/02 09:13:08;;;;;;;;;;;;;;;;;;5015655;28;19918;-59
2022/05/02 09:15:53;;;;;;;;;;;;;;;;;;5016940;28;19918;-58
2022/05/02 09:18:21;;;;;;;;;;;;;;;;;;5015838;28;19960;-57
2022/05/02 09:20:46;;;;;;;;;;;;;;;;;;5026821;28;20348;-58
2022/05/02 09:23:29;;;;;;;;;;;;;;;;;;5027193;28;19944;-58
2022/05/02 09:25:58;;;;;;;;;;;;;;;;;;5023990;28;20398;-59
2022/05/02 09:28:38;;;;;;;;;;;;;;;;;;5023296;28;19918;-58
2022/05/02 09:31:23;;;;;;;;;;;;;;;;;;5018875;28;19924;-58
2022/05/02 09:33:56;;;;;;;;;;;;;;;;;;5022366;28;20378;-59
2022/05/02 09:36:29;;;;;;;;;;;;;;;;;;5022009;28;19920;-58
2022/05/02 09:39:11;;;;;;;;;;;;;;;;;;5023684;28;20302;-58
2022/05/02 09:41:54;;;;;;;;;;;;;;;;;;5024376;28;20316;-58
2022/05/02 09:50:38;;;;;;;;;;;;;;;;;;5022891;28;20394;-58
2022/05/02 09:53:08;;;;;;;;;;;;;;;;;;5022606;28;19924;-59
2022/05/02 09:58:26;;;;;;;;;;;;;;;;;;5020053;28;19925;-58
2022/05/02 10:01:06;;;;;;;;;;;;;;;;;;5019248;28;19928;-59
2022/05/02 10:04:01;;;;;;;;;;;;;;;;;;5018054;28;19941;-58
2022/05/02 10:06:27;;;;;;;;;;;;;;;;;;5004488;28;20414;-58
2022/05/02 10:08:55;;;;;;;;;;;;;;;;;;5020568;28;19921;-58
2022/05/02 10:11:20;;;;;;;;;;;;;;;;;;5016289;28;20300;-58
2022/05/02 10:13:45;;;;;;;;;;;;;;;;;;5022987;28;19986;-57
2022/05/02 10:16:18;;;;;;;;;;;;;;;;;;5019226;28;20311;-58
2022/05/02 10:18:47;;;;;;;;;;;;;;;;;;5025331;28;19924;-57
2022/05/02 10:21:32;;;;;;;;;;;;;;;;;;5021677;28;20303;-57
2022/05/02 10:24:12;;;;;;;;;;;;;;;;;;5018195;28;20394;-58
2022/05/02 10:26:52;;;;;;;;;;;;;;;;;;5024454;28;20274;-59
2022/05/02 10:29:36;;;;;;;;;;;;;;;;;;5022877;28;20387;-58
2022/05/02 10:32:01;;;;;;;;;;;;;;;;;;5019290;28;19967;-58
2022/05/02 10:34:27;;;;;;;;;;;;;;;;;;5026803;28;19916;-58
2022/05/02 10:36:53;;;;;;;;;;;;;;;;;;5025104;28;19925;-58
2022/05/02 10:39:24;;;;;;;;;;;;;;;;;;5024780;28;19917;-58
2022/05/02 10:41:53;;;;;;;;;;;;;;;;;;5021903;28;20379;-60
2022/05/02 10:44:20;;;;;;;;;;;;;;;;;;5022456;28;19986;-59
2022/05/02 10:46:45;;;;;;;;;;;;;;;;;;5021186;28;19956;-58
2022/05/02 10:49:29;;;;;;;;;;;;;;;;;;5024712;28;19963;-58
2022/05/02 10:51:59;;;;;;;;;;;;;;;;;;5026947;28;20332;-59
2022/05/02 10:54:26;;;;;;;;;;;;;;;;;;5021121;28;19917;-58
2022/05/02 10:56:54;;;;;;;;;;;;;;;;;;5024125;28;19913;-58
2022/05/02 10:59:22;;;;;;;;;;;;;;;;;;5021919;28;19925;-59
2022/05/02 11:01:50;;;;;;;;;;;;;;;;;;5027998;28;20101;-59
2022/05/02 11:04:42;;;;;;;;;;;;;;;;;;5026252;28;20007;-60
2022/05/02 11:07:09;;;;;;;;;;;;;;;;;;5017623;28;20330;-59
2022/05/02 11:09:50;;;;;;;;;;;;;;;;;;5020847;28;19955;-60
2022/05/02 11:12:18;;;;;;;;;;;;;;;;;;5025296;28;19921;-60
2022/05/02 11:14:46;;;;;;;;;;;;;;;;;;5020276;28;19972;-60
2022/05/02 11:17:11;;;;;;;;;;;;;;;;;;5024123;28;20338;-59
2022/05/02 11:22:27;;;;;;;;;;;;;;;;;;5024109;28;19944;-59
2022/05/02 11:24:52;;;;;;;;;;;;;;;;;;5028137;28;20394;-59
2022/05/02 11:27:36;;;;;;;;;;;;;;;;;;5027724;28;19949;-59
2022/05/02 11:30:08;;;;;;;;;;;;;;;;;;5022825;28;19917;-59
2022/05/02 11:32:45;;;;;;;;;;;;;;;;;;5023403;28;19918;-59
2022/05/02 11:35:22;;;;;;;;;;;;;;;;;;5021269;28;19925;-59
2022/05/02 11:37:55;;;;;;;;;;;;;;;;;;5023807;28;20006;-59
2022/05/02 11:40:28;;;;;;;;;;;;;;;;;;5024527;28;19917;-62
2022/05/02 11:42:54;;;;;;;;;;;;;;;;;;5024559;28;20339;-62
2022/05/02 11:45:25;;;;;;;;;;;;;;;;;;5030081;28;19925;-61
2022/05/02 11:48:06;;;;;;;;;;;;;;;;;;5023549;28;19956;-63
2022/05/02 11:50:46;;;;;;;;;;;;;;;;;;5026646;28;19986;-61
2022/05/02 11:53:14;;;;;;;;;;;;;;;;;;5030312;28;19976;-59
2022/05/02 11:55:40;;;;;;;;;;;;;;;;;;5026525;28;19924;-61
2022/05/02 11:58:09;;;;;;;;;;;;;;;;;;5024967;28;19925;-58
2022/05/02 12:00:36;;;;;;;;;;;;;;;;;;5025121;28;19924;-59
2022/05/02 12:03:01;;;;;;;;;;;;;;;;;;5024863;28;20413;-58
2022/05/02 12:05:31;;;;;;;;;;;;;;;;;;5025124;28;19917;-59
2022/05/02 12:08:01;;;;;;;;;;;;;;;;;;5020683;28;19917;-59
2022/05/02 12:10:45;;;;;;;;;;;;;;;;;;5025680;28;19929;-59
2022/05/02 12:13:12;;;;;;;;;;;;;;;;;;5029165;28;20014;-59
2022/05/02 12:15:56;;;;;;;;;;;;;;;;;;5022432;28;19929;-59
2022/05/02 12:18:21;;;;;;;;;;;;;;;;;;5028959;28;19917;-61
2022/05/02 12:20:51;;;;;;;;;;;;;;;;;;5027268;28;19921;-61
2022/05/02 12:23:18;;;;;;;;;;;;;;;;;;5023385;28;20457;-61
2022/05/02 12:25:48;;;;;;;;;;;;;;;;;;5027193;28;19936;-61
2022/05/02 12:28:14;;;;;;;;;;;;;;;;;;5027869;28;19925;-59
2022/05/02 12:30:40;;;;;;;;;;;;;;;;;;5022772;28;19917;-62
2022/05/02 12:33:08;;;;;;;;;;;;;;;;;;5019787;28;20291;-59
2022/05/02 12:35:37;;;;;;;;;;;;;;;;;;5023233;28;19931;-61
2022/05/02 12:38:16;;;;;;;;;;;;;;;;;;5029510;28;19925;-59
2022/05/02 12:40:42;;;;;;;;;;;;;;;;;;5025505;28;19921;-59
2022/05/02 12:43:09;;;;;;;;;;;;;;;;;;5023323;28;19920;-59
2022/05/02 12:45:43;;;;;;;;;;;;;;;;;;5030010;28;19913;-59
2022/05/02 12:48:13;;;;;;;;;;;;;;;;;;5028492;28;20034;-59
2022/05/02 12:50:44;;;;;;;;;;;;;;;;;;5025038;28;19987;-59
2022/05/02 12:53:17;;;;;;;;;;;;;;;;;;5020154;28;20015;-59
2022/05/02 12:55:42;;;;;;;;;;;;;;;;;;5026421;28;19917;-59
2022/05/02 13:00:58;;;;;;;;;;;;;;;;;;5027090;28;20059;-59
2022/05/02 13:03:27;;;;;;;;;;;;;;;;;;5016884;28;19933;-59
2022/05/02 13:05:52;;;;;;;;;;;;;;;;;;5015647;28;19941;-59
2022/05/02 13:08:19;;;;;;;;;;;;;;;;;;5019262;28;20012;-59
2022/05/02 13:10:45;;;;;;;;;;;;;;;;;;5020153;28;19925;-59
2022/05/02 13:13:12;;;;;;;;;;;;;;;;;;5019141;28;19928;-59
2022/05/02 13:15:41;;;;;;;;;;;;;;;;;;5027015;28;20329;-59
2022/05/02 13:18:17;;;;;;;;;;;;;;;;;;5025285;28;20398;-59
2022/05/02 13:20:44;;;;;;;;;;;;;;;;;;5025600;28;19929;-59
2022/05/02 13:23:13;;;;;;;;;;;;;;;;;;5024315;28;19917;-59
2022/05/02 13:26:01;;;;;;;;;;;;;;;;;;5024715;28;19937;-59
2022/05/02 13:28:34;;;;;;;;;;;;;;;;;;5003384;28;20282;-59
2022/05/02 13:31:17;;;;;;;;;;;;;;;;;;5027245;28;19921;-59
2022/05/02 13:33:48;;;;;;;;;;;;;;;;;;5022512;28;19932;-59
2022/05/02 13:36:13;;;;;;;;;;;;;;;;;;5021208;28;19925;-59
2022/05/02 13:38:47;;;;;;;;;;;;;;;;;;5022799;28;19952;-59
2022/05/02 13:41:32;;;;;;;;;;;;;;;;;;5024477;28;20375;-59
2022/05/02 13:44:24;;;;;;;;;;;;;;;;;;5022160;28;19924;-59
2022/05/02 13:47:18;;;;;;;;;;;;;;;;;;5008158;28;19913;-59
2022/05/02 13:49:46;;;;;;;;;;;;;;;;;;5014318;28;19953;-59
2022/05/02 13:52:11;;;;;;;;;;;;;;;;;;5021248;28;20020;-59
2022/05/02 13:54:39;;;;;;;;;;;;;;;;;;5025357;28;20047;-59
2022/05/02 13:57:12;;;;;;;;;;;;;;;;;;5022223;28;19960;-59
2022/05/02 13:59:56;;;;;;;;;;;;;;;;;;5026625;28;19924;-59
2022/05/02 14:02:55;;;;;;;;;;;;;;;;;;5017196;28;19997;-59
2022/05/02 14:05:31;;;;;;;;;;;;;;;;;;4969364;28;19917;-59
2022/05/02 14:07:59;;;;;;;;;;;;;;;;;;5025629;28;19925;-59
2022/05/02 14:10:26;;;;;;;;;;;;;;;;;;5025315;28;20350;-59
2022/05/02 14:12:52;;;;;;;;;;;;;;;;;;5023284;28;20489;-59
2022/05/02 14:15:19;;;;;;;;;;;;;;;;;;5026848;28;20025;-58
2022/05/02 14:17:55;;;;;;;;;;;;;;;;;;5024795;28;19979;-59
2022/05/02 14:20:24;;;;;;;;;;;;;;;;;;5024977;28;19924;-59
2022/05/02 14:22:55;;;;;;;;;;;;;;;;;;5021897;28;19920;-59
2022/05/02 14:25:39;;;;;;;;;;;;;;;;;;5021615;28;19924;-59
2022/05/02 14:28:07;;;;;;;;;;;;;;;;;;5022894;28;19917;-57
2022/05/02 14:30:38;;;;;;;;;;;;;;;;;;5023260;28;20391;-59
2022/05/02 14:33:09;;;;;;;;;;;;;;;;;;5019596;28;20024;-57
2022/05/02 14:35:39;;;;;;;;;;;;;;;;;;5020642;28;20100;-57
2022/05/02 14:38:06;;;;;;;;;;;;;;;;;;5024518;28;20012;-56
2022/05/02 14:40:31;;;;;;;;;;;;;;;;;;5022745;28;19917;-61
2022/05/02 14:42:58;;;;;;;;;;;;;;;;;;5025583;28;19917;-58
2022/05/02 14:45:25;;;;;;;;;;;;;;;;;;5022820;28;19921;-61
2022/05/02 14:47:51;;;;;;;;;;;;;;;;;;5018805;28;19917;-60
2022/05/02 14:50:18;;;;;;;;;;;;;;;;;;5023049;28;19925;-59
2022/05/02 14:52:45;;;;;;;;;;;;;;;;;;5020576;28;19921;-59
2022/05/02 14:55:10;;;;;;;;;;;;;;;;;;5021105;28;19986;-58
2022/05/02 14:57:40;;;;;;;;;;;;;;;;;;5024725;28;19952;-59
2022/05/02 15:00:11;;;;;;;;;;;;;;;;;;5020217;28;20267;-59
2022/05/02 15:02:37;;;;;;;;;;;;;;;;;;5022075;28;19921;-59
2022/05/02 15:05:04;;;;;;;;;;;;;;;;;;5026833;28;19929;-60
2022/05/02 15:07:37;;;;;;;;;;;;;;;;;;5023918;28;19921;-60
2022/05/02 15:10:12;;;;;;;;;;;;;;;;;;5018600;28;19972;-59
2022/05/02 15:12:43;;;;;;;;;;;;;;;;;;5026774;28;19970;-59
2022/05/02 15:15:27;;;;;;;;;;;;;;;;;;5024547;28;19917;-59
2022/05/02 15:18:09;;;;;;;;;;;;;;;;;;5021173;28;20302;-59
2022/05/02 15:20:40;;;;;;;;;;;;;;;;;;5023268;28;19957;-59
2022/05/02 15:23:07;;;;;;;;;;;;;;;;;;5028260;28;20401;-59
2022/05/02 15:25:32;;;;;;;;;;;;;;;;;;5028730;28;19924;-59
2022/05/02 15:36:41;;;;;;;;;;;;;;;;;;;;;
2022/05/02 15:39:25;;;;;;;;;;;;;;;;;;5022589;28;19972;-55
2022/05/02 15:41:54;;;;;;;;;;;;;;;;;;5024070;28;19917;-53
2022/05/02 15:44:21;;;;;;;;;;;;;;;;;;5026032;28;19945;-54
2022/05/02 15:46:46;;;;;;;;;;;;;;;;;;5026447;28;20301;-55
2022/05/02 15:49:12;;;;;;;;;;;;;;;;;;5026149;28;20004;-59
2022/05/02 15:51:44;;;;;;;;;;;;;;;;;;5021296;28;19921;-57
2022/05/02 15:54:18;;;;;;;;;;;;;;;;;;5026664;28;19939;-55
2022/05/02 15:56:58;;;;;;;;;;;;;;;;;;5024138;28;19921;-54
2022/05/02 15:59:33;;;;;;;;;;;;;;;;;;5033776;28;19921;-55
2022/05/02 16:01:59;;;;;;;;;;;;;;;;;;5022720;28;19967;-56
2022/05/02 16:04:26;;;;;;;;;;;;;;;;;;5020931;28;19917;-56
2022/05/02 16:06:55;;;;;;;;;;;;;;;;;;5027919;28;20067;-55
2022/05/02 16:12:10;;;;;;;;;;;;;;;;;;5026573;28;19932;-56
2022/05/02 16:14:46;;;;;;;;;;;;;;;;;;5028770;28;19949;-56
2022/05/02 16:17:13;;;;;;;;;;;;;;;;;;5023753;28;19940;-55
2022/05/02 16:19:42;;;;;;;;;;;;;;;;;;5025632;28;19932;-57
2022/05/02 16:22:13;;;;;;;;;;;;;;;;;;5027153;28;19917;-61
2022/05/02 16:24:43;;;;;;;;;;;;;;;;;;5025499;28;19917;-60
2022/05/02 16:27:15;;;;;;;;;;;;;;;;;;5028769;28;20319;-60
2022/05/02 16:29:53;;;;;;;;;;;;;;;;;;5025526;28;19924;-61
2022/05/02 16:32:19;;;;;;;;;;;;;;;;;;5026089;28;19925;-60
2022/05/02 16:34:46;;;;;;;;;;;;;;;;;;5021845;28;20389;-60
2022/05/02 16:37:12;;;;;;;;;;;;;;;;;;5023435;28;19921;-60
2022/05/02 16:39:38;;;;;;;;;;;;;;;;;;5022524;28;19932;-60
2022/05/02 16:42:04;;;;;;;;;;;;;;;;;;5026280;28;19917;-61
2022/05/02 16:44:29;;;;;;;;;;;;;;;;;;5032276;28;19924;-60
2022/05/02 16:47:01;;;;;;;;;;;;;;;;;;5024865;28;19963;-60
2022/05/02 16:49:27;;;;;;;;;;;;;;;;;;5024171;28;19917;-59
2022/05/02 16:51:55;;;;;;;;;;;;;;;;;;5028227;28;19940;-59
2022/05/02 16:54:22;;;;;;;;;;;;;;;;;;5023039;28;19917;-59
2022/05/02 16:56:48;;;;;;;;;;;;;;;;;;5019488;28;19940;-59
2022/05/02 16:59:23;;;;;;;;;;;;;;;;;;5016369;28;19997;-59
2022/05/02 17:01:48;;;;;;;;;;;;;;;;;;5027801;28;19964;-58
2022/05/02 17:04:16;;;;;;;;;;;;;;;;;;5022313;28;20290;-59
2022/05/02 17:06:45;;;;;;;;;;;;;;;;;;5017875;28;19917;-59
2022/05/02 17:09:12;;;;;;;;;;;;;;;;;;5022424;28;20309;-59
2022/05/02 17:11:38;;;;;;;;;;;;;;;;;;5029509;28;20187;-59
2022/05/02 17:14:04;;;;;;;;;;;;;;;;;;5026575;28;19921;-59
2022/05/02 17:16:29;;;;;;;;;;;;;;;;;;5023354;28;19918;-59
2022/05/02 17:19:00;;;;;;;;;;;;;;;;;;5026133;28;19925;-59
2022/05/02 17:21:29;;;;;;;;;;;;;;;;;;5026725;28;19969;-59
2022/05/02 17:23:56;;;;;;;;;;;;;;;;;;5032512;28;20339;-57
2022/05/02 17:26:21;;;;;;;;;;;;;;;;;;5026854;28;19925;-58
2022/05/02 17:28:51;;;;;;;;;;;;;;;;;;5026157;28;20381;-57
2022/05/02 17:31:20;;;;;;;;;;;;;;;;;;5026476;28;19928;-59
2022/05/02 17:33:46;;;;;;;;;;;;;;;;;;5023517;28;19925;-59
2022/05/02 17:36:12;;;;;;;;;;;;;;;;;;5024482;28;19924;-58
2022/05/02 17:38:37;;;;;;;;;;;;;;;;;;5027028;28;19921;-59
2022/05/02 17:41:21;;;;;;;;;;;;;;;;;;5026365;28;19925;-58
2022/05/02 17:43:48;;;;;;;;;;;;;;;;;;5024742;28;20001;-59
2022/05/02 17:46:14;;;;;;;;;;;;;;;;;;5023806;28;19921;-59